createdAt,value
2019-05-03T00:02:33.560Z,77.72
2019-05-03T00:05:23.228Z,78.10
2019-05-03T00:08:02.036Z,78.46
2019-05-03T00:10:34.448Z,78.80
2019-05-03T00:13:06.727Z,78.43
2019-05-03T00:15:52.211Z,77.93
2019-05-03T00:18:24.662Z,78.21
2019-05-03T00:20:55.927Z,78.37
2019-05-03T00:23:27.763Z,78.78
2019-05-03T00:25:59.607Z,79.03
2019-05-03T00:28:32.194Z,79.40
2019-05-03T00:31:03.587Z,79.72
2019-05-03T00:33:37.170Z,79.99
2019-05-03T00:36:37.023Z,80.06
2019-05-03T00:39:32.485Z,80.64
2019-05-03T00:42:04.915Z,81.08
2019-05-03T00:44:36.739Z,81.67
2019-05-03T00:47:07.924Z,79.12
2019-05-03T00:49:39.691Z,77.92
2019-05-03T00:52:11.772Z,77.32
2019-05-03T00:54:43.603Z,77.94
2019-05-03T00:57:14.785Z,77.37
2019-05-03T00:59:46.703Z,78.28
2019-05-03T01:02:18.751Z,78.07
2019-05-03T01:04:51.854Z,77.89
2019-05-03T01:07:23.843Z,78.28
2019-05-03T01:09:55.059Z,76.35
2019-05-03T01:12:26.836Z,75.18
2019-05-03T01:15:02.066Z,73.97
2019-05-03T01:17:35.767Z,73.88
2019-05-03T01:20:07.511Z,73.88
2019-05-03T01:22:38.717Z,73.94
2019-05-03T01:25:12.086Z,74.59
2019-05-03T01:27:45.211Z,75.55
2019-05-03T01:30:17.246Z,76.06
2019-05-03T01:32:49.178Z,77.09
2019-05-03T01:35:21.917Z,78.25
2019-05-03T01:37:53.246Z,79.01
2019-05-03T01:40:24.422Z,80.42
2019-05-03T01:42:56.317Z,81.73
2019-05-03T01:45:28.378Z,82.07
2019-05-03T01:48:06.318Z,82.52
2019-05-03T01:50:48.294Z,82.96
2019-05-03T01:53:21.774Z,83.08
2019-05-03T01:55:53.660Z,83.95
2019-05-03T01:58:25.329Z,84.63
2019-05-03T02:01:04.017Z,84.44
2019-05-03T02:03:44.735Z,85.44
2019-05-03T02:06:15.861Z,85.99
2019-05-03T02:08:47.706Z,85.53
2019-05-03T02:11:19.594Z,85.99
2019-05-03T02:13:52.219Z,85.32
2019-05-03T02:16:24.179Z,86.25
2019-05-03T02:18:55.994Z,86.75
2019-05-03T02:21:27.184Z,87.49
2019-05-03T02:23:58.979Z,88.31
2019-05-03T02:26:31.777Z,89.61
2019-05-03T02:29:03.732Z,91.03
2019-05-03T02:31:34.915Z,91.75
2019-05-03T02:34:06.662Z,92.51
2019-05-03T02:36:37.869Z,93.42
2019-05-03T02:39:13.609Z,93.61
2019-05-03T02:41:48.718Z,94.09
2019-05-03T02:44:21.306Z,94.75
2019-05-03T02:47:10.514Z,95.04
2019-05-03T02:49:52.797Z,95.62
2019-05-03T02:52:37.752Z,95.14
2019-05-03T02:55:11.837Z,94.53
2019-05-03T02:57:46.662Z,93.26
2019-05-03T03:00:19.714Z,91.22
2019-05-03T03:02:51.875Z,90.17
2019-05-03T03:05:25.286Z,87.70
2019-05-03T03:07:57.865Z,86.89
2019-05-03T03:10:30.267Z,86.64
2019-05-03T03:13:05.930Z,85.79
2019-05-03T03:15:40.066Z,84.86
2019-05-03T03:18:15.638Z,83.26
2019-05-03T03:20:50.867Z,82.48
2019-05-03T03:23:26.485Z,83.31
2019-05-03T03:26:01.027Z,82.48
2019-05-03T03:28:37.084Z,82.11
2019-05-03T03:32:09.322Z,82.13
2019-05-03T03:34:53.401Z,81.30
2019-05-03T03:37:18.638Z,81.18
2019-05-03T03:39:50.931Z,80.35
2019-05-03T03:42:25.129Z,81.25
2019-05-03T03:44:58.482Z,80.77
2019-05-03T03:47:35.865Z,80.21
2019-05-03T03:50:06.525Z,80.30
2019-05-03T03:52:42.186Z,79.98
2019-05-03T03:55:15.964Z,79.40
2019-05-03T03:57:47.906Z,79.00
2019-05-03T04:00:19.949Z,79.12
2019-05-03T04:02:51.737Z,78.97
2019-05-03T04:05:25.365Z,78.18
2019-05-03T04:07:58.213Z,77.83
2019-05-03T04:10:31.877Z,77.88
2019-05-03T04:13:06.858Z,77.72
2019-05-03T04:15:55.956Z,77.32
2019-05-03T04:18:55.209Z,77.57
2019-05-03T04:21:28.585Z,77.19
2019-05-03T04:24:01.197Z,76.13
2019-05-03T04:26:35.616Z,76.20
2019-05-03T04:29:07.388Z,77.17
2019-05-03T04:31:39.372Z,77.58
2019-05-03T04:34:11.422Z,77.52
2019-05-03T04:36:45.989Z,77.62
2019-05-03T04:39:20.207Z,78.12
2019-05-03T04:41:50.918Z,77.34
2019-05-03T04:44:22.785Z,76.81
2019-05-03T04:46:56.132Z,74.64
2019-05-03T04:49:29.889Z,72.93
2019-05-03T04:52:01.694Z,70.62
2019-05-03T04:54:41.820Z,68.25
2019-05-03T04:57:15.829Z,65.74
2019-05-03T04:59:46.866Z,65.82
2019-05-03T05:02:18.837Z,63.69
2019-05-03T05:04:50.046Z,63.93
2019-05-03T05:07:21.862Z,62.87
2019-05-03T05:09:56.229Z,62.61
2019-05-03T05:12:27.367Z,60.84
2019-05-03T05:14:59.187Z,59.18
2019-05-03T05:17:38.000Z,57.29
2019-05-03T05:20:21.101Z,58.09
2019-05-03T05:22:54.390Z,57.46
2019-05-03T05:25:27.389Z,58.47
2019-05-03T05:28:30.270Z,57.75
2019-05-03T05:31:02.145Z,57.57
2019-05-03T05:33:35.383Z,57.89
2019-05-03T05:36:07.548Z,58.23
2019-05-03T05:38:39.493Z,57.22
2019-05-03T05:41:11.282Z,57.74
2019-05-03T05:43:44.702Z,58.28
2019-05-03T05:46:17.404Z,58.95
2019-05-03T05:48:50.351Z,56.90
2019-05-03T05:51:22.189Z,55.96
2019-05-03T05:53:54.897Z,55.23
2019-05-03T05:57:00.780Z,55.76
2019-05-03T05:59:56.990Z,54.89
2019-05-03T06:02:28.937Z,54.81
2019-05-03T06:05:00.843Z,54.12
2019-05-03T06:07:57.576Z,54.88
2019-05-03T06:10:51.342Z,54.24
2019-05-03T06:13:48.141Z,54.40
2019-05-03T06:16:28.797Z,55.13
2019-05-03T06:19:05.769Z,55.16
2019-05-03T06:21:44.799Z,55.58
2019-05-03T06:24:24.897Z,56.45
2019-05-03T06:27:04.719Z,55.55
2019-05-03T06:29:36.441Z,55.13
2019-05-03T06:32:16.149Z,52.64
2019-05-03T06:34:47.995Z,50.97
2019-05-03T06:37:21.558Z,50.13
2019-05-03T06:39:54.423Z,51.07
2019-05-03T06:42:26.285Z,49.63
2019-05-03T06:44:59.753Z,48.83
2019-05-03T06:47:31.844Z,48.18
2019-05-03T06:50:05.395Z,49.41
2019-05-03T06:52:37.412Z,50.02
2019-05-03T06:55:10.864Z,49.00
2019-05-03T06:57:49.382Z,49.70
2019-05-03T07:00:50.507Z,49.96
2019-05-03T07:03:35.463Z,49.36
2019-05-03T07:06:40.386Z,49.42
2019-05-03T07:09:48.102Z,50.44
2019-05-03T07:12:19.987Z,49.73
2019-05-03T07:14:51.903Z,51.28
2019-05-03T07:17:24.823Z,51.43
2019-05-03T07:19:56.218Z,52.30
2019-05-03T07:22:29.049Z,52.34
2019-05-03T07:25:00.930Z,51.67
2019-05-03T07:27:34.970Z,50.46
2019-05-03T07:30:07.632Z,49.63
2019-05-03T07:32:41.190Z,49.76
2019-05-03T07:35:14.779Z,51.34
2019-05-03T07:37:46.742Z,50.20
2019-05-03T07:40:18.603Z,49.95
2019-05-03T07:42:50.531Z,49.15
2019-05-03T07:45:22.639Z,47.31
2019-05-03T07:47:55.888Z,48.67
2019-05-03T07:50:28.215Z,47.90
2019-05-03T07:53:00.243Z,49.11
2019-05-03T07:55:49.759Z,47.85
2019-05-03T07:58:22.549Z,48.90
2019-05-03T08:01:05.896Z,48.37
2019-05-03T08:03:29.737Z,45.62
2019-05-03T08:06:01.574Z,45.49
2019-05-03T08:08:35.261Z,46.05
2019-05-03T08:11:07.151Z,43.83
2019-05-03T08:13:39.044Z,44.11
2019-05-03T08:16:10.903Z,45.26
2019-05-03T08:18:42.763Z,45.05
2019-05-03T08:21:14.995Z,44.76
2019-05-03T08:23:47.023Z,45.29
2019-05-03T08:26:18.878Z,45.53
2019-05-03T08:28:50.758Z,45.37
2019-05-03T08:31:37.047Z,43.70
2019-05-03T08:34:36.727Z,42.99
2019-05-03T08:37:10.755Z,42.88
2019-05-03T08:39:44.655Z,42.44
2019-05-03T08:42:26.925Z,44.20
2019-05-03T08:44:58.861Z,41.01
2019-05-03T08:47:30.699Z,40.16
2019-05-03T08:50:02.741Z,40.52
2019-05-03T08:52:34.858Z,40.34
2019-05-03T08:55:07.129Z,39.79
2019-05-03T08:57:39.031Z,39.81
2019-05-03T09:00:16.192Z,40.79
2019-05-03T09:02:48.031Z,39.28
2019-05-03T09:05:20.020Z,40.02
2019-05-03T09:07:51.256Z,40.36
2019-05-03T09:10:35.202Z,39.32
2019-05-03T09:13:08.036Z,38.84
2019-05-03T09:15:40.249Z,38.71
2019-05-03T09:18:15.107Z,39.07
2019-05-03T09:20:45.156Z,38.36
2019-05-03T09:23:17.135Z,36.77
2019-05-03T09:25:49.117Z,37.21
2019-05-03T09:28:20.953Z,38.15
2019-05-03T09:30:54.723Z,38.96
2019-05-03T09:33:26.499Z,38.50
2019-05-03T09:35:58.364Z,38.15
2019-05-03T09:38:30.227Z,39.06
2019-05-03T09:41:02.079Z,36.90
2019-05-03T09:43:35.707Z,37.26
2019-05-03T09:46:07.762Z,38.71
2019-05-03T09:48:38.959Z,37.72
2019-05-03T09:51:10.746Z,36.33
2019-05-03T09:53:49.477Z,35.59
2019-05-03T09:56:53.610Z,35.27
2019-05-03T09:59:14.760Z,34.06
2019-05-03T10:01:46.844Z,34.75
2019-05-03T10:04:18.787Z,35.85
2019-05-03T10:06:50.756Z,35.78
2019-05-03T10:09:22.580Z,35.92
2019-05-03T10:11:55.182Z,35.84
2019-05-03T10:14:27.323Z,35.81
2019-05-03T10:17:18.011Z,36.46
2019-05-03T10:19:50.009Z,36.68
2019-05-03T10:22:27.830Z,36.97
2019-05-03T10:24:59.650Z,37.67
2019-05-03T10:27:36.990Z,38.72
2019-05-03T10:30:12.914Z,39.26
2019-05-03T10:32:45.408Z,36.20
2019-05-03T10:35:17.789Z,36.86
2019-05-03T10:37:49.720Z,36.52
2019-05-03T10:40:28.284Z,34.36
2019-05-03T10:42:59.565Z,34.02
2019-05-03T10:45:35.540Z,32.94
2019-05-03T10:48:12.335Z,31.84
2019-05-03T10:50:44.322Z,32.21
2019-05-03T10:53:30.256Z,33.02
2019-05-03T10:56:23.078Z,35.28
2019-05-03T10:58:56.966Z,37.15
2019-05-03T11:01:54.540Z,36.22
2019-05-03T11:04:27.614Z,35.70
2019-05-03T11:06:59.467Z,35.12
2019-05-03T11:09:31.316Z,33.91
2019-05-03T11:12:05.343Z,33.70
2019-05-03T11:14:38.631Z,33.22
2019-05-03T11:17:10.458Z,33.81
2019-05-03T11:19:42.308Z,34.79
2019-05-03T11:22:14.669Z,31.63
2019-05-03T11:24:46.846Z,31.28
2019-05-03T11:27:24.714Z,31.38
2019-05-03T11:29:59.151Z,30.94
2019-05-03T11:32:38.932Z,31.24
2019-05-03T11:35:25.239Z,30.92
2019-05-03T11:38:21.976Z,30.70
2019-05-03T11:40:55.823Z,30.99
2019-05-03T11:43:26.783Z,31.30
2019-05-03T11:45:58.646Z,31.60
2019-05-03T11:48:29.851Z,32.16
2019-05-03T11:51:01.661Z,31.03
2019-05-03T11:53:35.620Z,29.39
2019-05-03T11:56:05.716Z,29.03
2019-05-03T11:58:36.899Z,29.16
2019-05-03T12:01:25.405Z,30.55
2019-05-03T12:04:00.327Z,31.05
2019-05-03T12:06:32.230Z,31.43
2019-05-03T12:09:05.657Z,30.88
2019-05-03T12:11:39.959Z,31.45
2019-05-03T12:14:15.225Z,31.42
2019-05-03T12:17:16.158Z,32.15
2019-05-03T12:19:31.019Z,32.59
2019-05-03T12:22:00.178Z,33.09
2019-05-03T12:24:32.596Z,32.50
2019-05-03T12:27:04.732Z,31.33
2019-05-03T12:29:36.653Z,31.24
2019-05-03T12:32:09.683Z,31.58
2019-05-03T12:34:41.037Z,30.43
2019-05-03T12:37:12.911Z,30.67
2019-05-03T12:39:44.798Z,31.15
2019-05-03T12:42:18.714Z,32.06
2019-05-03T12:44:49.475Z,32.19
2019-05-03T12:47:22.351Z,32.33
2019-05-03T12:49:55.883Z,33.16
2019-05-03T12:52:28.518Z,34.17
2019-05-03T12:55:00.722Z,34.96
2019-05-03T12:57:34.472Z,35.04
2019-05-03T13:00:25.679Z,34.39
2019-05-03T13:03:10.254Z,33.80
2019-05-03T13:05:42.079Z,32.54
2019-05-03T13:08:42.777Z,32.74
2019-05-03T13:11:14.755Z,32.59
2019-05-03T13:13:46.694Z,32.49
2019-05-03T13:16:20.829Z,32.40
2019-05-03T13:18:55.149Z,31.96
2019-05-03T13:21:26.309Z,32.12
2019-05-03T13:23:58.281Z,31.86
2019-05-03T13:26:29.481Z,29.86
2019-05-03T13:29:01.305Z,30.14
2019-05-03T13:31:34.651Z,30.10
2019-05-03T13:34:06.743Z,29.62
2019-05-03T13:36:38.927Z,30.44
2019-05-03T13:39:14.163Z,30.36
2019-05-03T13:41:45.527Z,31.02
2019-05-03T13:44:18.805Z,31.89
2019-05-03T13:46:51.763Z,30.62
2019-05-03T13:49:26.398Z,30.49
2019-05-03T13:51:58.522Z,30.59
2019-05-03T13:54:29.734Z,30.75
2019-05-03T13:57:00.817Z,29.27
2019-05-03T13:59:32.801Z,29.88
2019-05-03T14:02:15.212Z,29.70
2019-05-03T14:04:49.337Z,30.00
2019-05-03T14:07:11.149Z,30.04
2019-05-03T14:09:45.126Z,30.27
2019-05-03T14:12:16.519Z,30.87
2019-05-03T14:14:55.746Z,31.00
2019-05-03T14:17:29.390Z,30.11
2019-05-03T14:20:17.924Z,30.54
2019-05-03T14:22:50.271Z,30.77
2019-05-03T14:25:22.168Z,30.33
2019-05-03T14:27:55.003Z,30.75
2019-05-03T14:30:26.966Z,30.67
2019-05-03T14:32:58.249Z,30.37
2019-05-03T14:35:30.076Z,29.26
2019-05-03T14:38:01.435Z,29.87
2019-05-03T14:40:33.305Z,29.81
2019-05-03T14:43:05.156Z,29.13
2019-05-03T14:45:37.021Z,29.83
2019-05-03T14:48:09.010Z,28.65
2019-05-03T14:50:40.357Z,29.23
2019-05-03T14:53:14.778Z,28.93
2019-05-03T14:56:01.870Z,29.66
2019-05-03T14:59:09.436Z,29.81
2019-05-03T15:01:49.253Z,29.59
2019-05-03T15:04:21.364Z,29.77
2019-05-03T15:06:52.562Z,30.57
2019-05-03T15:09:25.155Z,31.45
2019-05-03T15:11:58.250Z,31.96
2019-05-03T15:14:30.604Z,32.38
2019-05-03T15:17:01.959Z,31.59
2019-05-03T15:19:34.877Z,32.08
2019-05-03T15:22:07.228Z,32.69
2019-05-03T15:24:39.557Z,32.76
2019-05-03T15:27:10.752Z,33.02
2019-05-03T15:29:44.791Z,32.31
2019-05-03T15:32:16.692Z,32.64
2019-05-03T15:34:49.004Z,32.05
2019-05-03T15:37:21.394Z,31.30
2019-05-03T15:39:55.068Z,31.22
2019-05-03T15:42:27.308Z,31.13
2019-05-03T15:45:17.714Z,30.75
2019-05-03T15:48:10.701Z,31.01
2019-05-03T15:50:42.164Z,31.97
2019-05-03T15:53:15.174Z,32.22
2019-05-03T15:55:48.326Z,32.11
2019-05-03T15:58:19.481Z,32.59
2019-05-03T16:00:51.390Z,32.01
2019-05-03T16:03:30.766Z,32.61
2019-05-03T16:06:02.607Z,32.42
2019-05-03T16:08:34.570Z,32.13
2019-05-03T16:11:06.763Z,32.39
2019-05-03T16:13:38.366Z,32.19
2019-05-03T16:16:10.911Z,32.74
2019-05-03T16:18:44.768Z,32.27
2019-05-03T16:21:16.815Z,32.00
2019-05-03T16:23:49.736Z,32.76
2019-05-03T16:26:25.272Z,34.15
2019-05-03T16:29:04.695Z,34.36
2019-05-03T16:31:36.161Z,33.68
2019-05-03T16:34:07.819Z,33.95
2019-05-03T16:36:40.047Z,33.96
2019-05-03T16:39:31.528Z,33.62
2019-05-03T16:42:06.777Z,32.74
2019-05-03T16:44:37.252Z,31.71
2019-05-03T16:47:09.158Z,32.57
2019-05-03T16:49:42.287Z,33.62
2019-05-03T16:52:17.271Z,32.95
2019-05-03T16:54:47.761Z,33.59
2019-05-03T16:57:19.303Z,33.43
2019-05-03T16:59:55.013Z,33.78
2019-05-03T17:02:27.676Z,34.63
2019-05-03T17:05:07.490Z,34.70
2019-05-03T17:07:55.345Z,34.67
2019-05-03T17:10:31.761Z,34.99
2019-05-03T17:13:05.498Z,34.97
2019-05-03T17:15:36.787Z,35.18
2019-05-03T17:18:09.005Z,35.58
2019-05-03T17:20:42.759Z,35.45
2019-05-03T17:23:15.471Z,35.84
2019-05-03T17:25:47.740Z,35.26
2019-05-03T17:28:19.630Z,35.58
2019-05-03T17:30:50.865Z,35.42
2019-05-03T17:33:22.047Z,35.74
2019-05-03T17:35:54.456Z,36.31
2019-05-03T17:38:27.328Z,36.06
2019-05-03T17:41:21.579Z,36.17
2019-05-03T17:43:57.039Z,36.78
2019-05-03T17:46:28.849Z,36.80
2019-05-03T17:49:00.729Z,36.62
2019-05-03T17:51:57.596Z,36.80
2019-05-03T17:55:04.929Z,37.34
2019-05-03T17:57:55.579Z,37.34
2019-05-03T18:00:44.791Z,37.54
2019-05-03T18:03:17.058Z,38.26
2019-05-03T18:05:54.147Z,38.25
2019-05-03T18:08:37.560Z,38.64
2019-05-03T18:11:12.255Z,38.63
2019-05-03T18:13:44.600Z,39.21
2019-05-03T18:16:16.733Z,39.18
2019-05-03T18:18:49.069Z,39.47
2019-05-03T18:21:26.804Z,39.88
2019-05-03T18:23:58.347Z,40.18
2019-05-03T18:26:29.736Z,40.65
2019-05-03T18:29:01.812Z,40.89
2019-05-03T18:31:34.070Z,40.94
2019-05-03T18:34:18.582Z,41.56
2019-05-03T18:36:40.599Z,42.14
2019-05-03T18:39:14.689Z,42.47
2019-05-03T18:41:46.523Z,42.99
2019-05-03T18:44:46.495Z,43.74
2019-05-03T18:47:25.066Z,44.18
2019-05-03T18:49:56.700Z,44.74
2019-05-03T18:52:28.688Z,45.03
2019-05-03T18:55:00.806Z,45.21
2019-05-03T18:57:33.936Z,45.88
2019-05-03T19:00:08.092Z,45.95
2019-05-03T19:02:38.946Z,45.80
2019-05-03T19:05:11.738Z,45.49
2019-05-03T19:08:06.183Z,45.87
2019-05-03T19:10:49.880Z,46.37
2019-05-03T19:13:27.687Z,46.52
2019-05-03T19:16:01.174Z,46.79
2019-05-03T19:18:35.344Z,48.14
2019-05-03T19:21:06.813Z,47.90
2019-05-03T19:23:38.988Z,47.99
2019-05-03T19:26:11.207Z,48.38
2019-05-03T19:28:44.545Z,48.91
2019-05-03T19:31:15.910Z,51.14
2019-05-03T19:33:48.840Z,51.03
2019-05-03T19:36:21.066Z,51.78
2019-05-03T19:38:54.620Z,51.52
2019-05-03T19:41:26.546Z,53.06
2019-05-03T19:43:58.611Z,52.82
2019-05-03T19:46:29.879Z,52.21
2019-05-03T19:49:01.743Z,52.18
2019-05-03T19:51:34.669Z,52.15
2019-05-03T19:54:06.190Z,52.42
2019-05-03T19:56:39.010Z,53.00
2019-05-03T19:59:14.876Z,54.92
2019-05-03T20:02:04.890Z,55.43
2019-05-03T20:05:14.967Z,55.84
2019-05-03T20:08:20.394Z,56.06
2019-05-03T20:11:14.651Z,56.03
2019-05-03T20:13:46.802Z,55.44
2019-05-03T20:16:18.626Z,55.02
2019-05-03T20:18:50.483Z,54.12
2019-05-03T20:21:22.793Z,54.57
2019-05-03T20:23:55.513Z,54.20
2019-05-03T20:26:27.722Z,53.91
2019-05-03T20:28:59.661Z,53.26
2019-05-03T20:31:31.126Z,53.59
2019-05-03T20:34:05.290Z,54.18
2019-05-03T20:36:38.226Z,54.18
2019-05-03T20:39:09.888Z,54.54
2019-05-03T20:41:42.539Z,54.91
2019-05-03T20:44:27.227Z,54.70
2019-05-03T20:47:05.240Z,54.46
2019-05-03T20:49:37.389Z,54.73
2019-05-03T20:52:10.260Z,54.48
2019-05-03T20:54:42.267Z,54.72
2019-05-03T20:57:14.607Z,54.80
2019-05-03T20:59:51.682Z,55.33
2019-05-03T21:02:21.072Z,53.96
2019-05-03T21:04:54.660Z,53.85
2019-05-03T21:07:26.041Z,52.98
2019-05-03T21:09:58.017Z,52.36
2019-05-03T21:12:31.484Z,52.81
2019-05-03T21:15:05.019Z,52.81
2019-05-03T21:17:50.840Z,52.81
2019-05-03T21:20:53.148Z,53.42
2019-05-03T21:23:26.133Z,52.72
2019-05-03T21:26:12.498Z,53.03
2019-05-03T21:28:38.744Z,53.87
2019-05-03T21:31:10.617Z,53.28
2019-05-03T21:33:42.095Z,53.47
2019-05-03T21:36:15.112Z,53.43
2019-05-03T21:38:47.569Z,53.53
2019-05-03T21:41:19.844Z,53.73
2019-05-03T21:43:54.354Z,53.74
2019-05-03T21:46:35.127Z,53.77
2019-05-03T21:49:14.951Z,53.90
2019-05-03T21:51:47.544Z,54.23
2019-05-03T21:54:21.273Z,54.02
2019-05-03T21:56:55.083Z,53.66
2019-05-03T21:59:26.753Z,53.11
2019-05-03T22:01:59.162Z,53.74
2019-05-03T22:04:32.188Z,53.35
2019-05-03T22:07:05.241Z,53.41
2019-05-03T22:09:36.597Z,53.56
2019-05-03T22:12:07.643Z,53.58
2019-05-03T22:14:46.935Z,53.96
2019-05-03T22:17:40.061Z,54.06
2019-05-03T22:20:24.639Z,54.13
2019-05-03T22:23:04.541Z,55.08
2019-05-03T22:25:36.794Z,55.61
2019-05-03T22:28:08.058Z,56.32
2019-05-03T22:30:40.136Z,56.62
2019-05-03T22:33:11.423Z,56.81
2019-05-03T22:35:44.520Z,57.25
2019-05-03T22:38:16.680Z,57.41
2019-05-03T22:40:49.568Z,57.46
2019-05-03T22:43:20.784Z,57.56
2019-05-03T22:45:54.677Z,57.82
2019-05-03T22:48:26.124Z,58.54
2019-05-03T22:50:58.044Z,58.88
2019-05-03T22:53:29.917Z,58.20
2019-05-03T22:56:01.067Z,58.71
2019-05-03T22:58:32.218Z,58.92
2019-05-03T23:01:04.506Z,58.55
2019-05-03T23:03:44.882Z,58.46
2019-05-03T23:06:22.089Z,58.44
2019-05-03T23:08:50.465Z,58.58
2019-05-03T23:11:21.668Z,58.84
2019-05-03T23:14:04.905Z,58.63
2019-05-03T23:16:35.906Z,58.49
2019-05-03T23:19:07.924Z,58.27
2019-05-03T23:21:57.100Z,58.99
2019-05-03T23:24:28.288Z,58.85
2019-05-03T23:26:59.524Z,58.57
2019-05-03T23:29:31.625Z,58.48
2019-05-03T23:32:04.644Z,58.62
2019-05-03T23:34:36.171Z,58.23
2019-05-03T23:37:08.058Z,57.73
2019-05-03T23:39:40.020Z,57.54
2019-05-03T23:42:12.199Z,57.56
2019-05-03T23:44:45.475Z,57.23
2019-05-03T23:47:40.976Z,56.90
2019-05-03T23:50:19.354Z,56.91
2019-05-03T23:52:50.650Z,57.14
2019-05-03T23:55:38.936Z,57.23
2019-05-03T23:58:10.950Z,57.53
